Time;durP1;ratioP1;P1;durP2;ratioP2;P2;SDS_P1;SDS_P2;PMS_P1;PMS_P2;Temp;Humidity;BMP_temperature;BMP_pressure;BME280_temperature;BME280_humidity;BME280_pressure;Samples;Min_cycle;Max_cycle;Signal;HPM_P1;HPM_P2
2023/01/03 00:01:31;;;;;;;168.73;125.25;;;5.80;99.90;;;;;;4994010;28;20474;-73
2023/01/03 00:03:58;;;;;;;159.48;121.45;;;5.80;99.90;;;;;;4994229;28;20039;-73
2023/01/03 00:06:25;;;;;;;149.18;116.18;;;5.80;99.90;;;;;;4994019;28;20117;-74
2023/01/03 00:08:52;;;;;;;149.93;113.50;;;5.80;99.90;;;;;;4991399;28;20474;-73
2023/01/03 00:14:08;;;;;;;137.98;106.38;;;5.80;99.90;;;;;;4993653;28;20117;-73
2023/01/03 00:16:33;;;;;;;136.40;101.63;;;5.90;99.90;;;;;;4993813;28;20026;-74
2023/01/03 00:18:59;;;;;;;124.40;100.00;;;5.90;99.90;;;;;;4993995;28;20034;-74
2023/01/03 00:21:25;;;;;;;134.55;101.70;;;6.00;99.90;;;;;;4990918;28;20132;-74
2023/01/03 00:23:51;;;;;;;127.47;98.07;;;6.00;99.90;;;;;;4983386;28;20039;-73
2023/01/03 00:26:17;;;;;;;117.15;91.82;;;6.10;99.90;;;;;;4994050;28;20018;-73
2023/01/03 00:28:43;;;;;;;110.45;86.20;;;6.10;99.90;;;;;;4982321;28;20029;-73
2023/01/03 00:31:10;;;;;;;115.75;88.60;;;6.10;99.90;;;;;;4993883;28;20351;-74
2023/01/03 00:33:38;;;;;;;104.85;82.65;;;6.00;99.90;;;;;;4993371;28;20035;-73
2023/01/03 00:36:06;;;;;;;105.07;78.05;;;6.10;99.90;;;;;;4993434;28;20018;-73
2023/01/03 00:38:33;;;;;;;104.45;77.93;;;6.10;99.90;;;;;;4975741;28;20069;-74
2023/01/03 00:41:05;;;;;;;93.70;71.32;;;6.10;99.90;;;;;;4992697;28;20023;-74
2023/01/03 00:43:31;;;;;;;97.10;74.70;;;6.10;99.90;;;;;;4969252;28;20055;-73
2023/01/03 00:45:57;;;;;;;95.00;71.40;;;6.10;99.90;;;;;;4969113;28;20031;-74
2023/01/03 00:48:23;;;;;;;94.63;69.68;;;6.20;99.90;;;;;;4973007;28;20482;-73
2023/01/03 00:50:49;;;;;;;90.50;66.35;;;6.20;99.90;;;;;;4974371;28;20022;-73
2023/01/03 00:53:15;;;;;;;98.68;69.53;;;6.30;99.90;;;;;;4979138;28;20161;-73
2023/01/03 00:55:41;;;;;;;85.53;61.95;;;6.30;99.90;;;;;;4993969;28;20030;-74
2023/01/03 00:58:06;;;;;;;86.85;62.08;;;6.30;99.90;;;;;;4993357;28;20105;-74
2023/01/03 01:00:33;;;;;;;80.57;59.65;;;6.30;99.90;;;;;;4993540;28;20019;-73
2023/01/03 01:02:59;;;;;;;80.25;59.65;;;6.30;99.90;;;;;;4993249;28;20164;-73
2023/01/03 01:05:24;;;;;;;81.80;61.13;;;6.30;99.90;;;;;;4988327;28;20055;-73
2023/01/03 01:07:50;;;;;;;78.97;57.90;;;6.30;99.90;;;;;;4991826;28;20027;-73
2023/01/03 01:10:18;;;;;;;80.78;61.67;;;6.30;99.90;;;;;;4993298;28;20049;-73
2023/01/03 01:12:48;;;;;;;82.82;61.17;;;6.30;99.90;;;;;;4999947;28;20033;-73
2023/01/03 01:15:13;;;;;;;82.15;61.20;;;6.30;99.90;;;;;;4999977;28;20424;-73
2023/01/03 01:17:40;;;;;;;84.25;61.60;;;6.30;99.90;;;;;;4999743;28;20026;-73
2023/01/03 01:20:07;;;;;;;89.53;63.90;;;6.40;99.90;;;;;;5000128;28;20037;-73
2023/01/03 01:22:34;;;;;;;83.40;60.15;;;6.40;99.90;;;;;;4999587;28;20109;-73
2023/01/03 01:25:00;;;;;;;82.22;61.03;;;6.40;99.90;;;;;;4999923;28;20041;-73
2023/01/03 01:27:26;;;;;;;90.00;63.08;;;6.40;99.90;;;;;;4999759;28;20351;-73
2023/01/03 01:29:52;;;;;;;86.03;61.80;;;6.30;99.90;;;;;;4999786;28;20037;-74
2023/01/03 01:32:18;;;;;;;78.50;60.80;;;6.30;99.90;;;;;;4999368;28;20026;-74
2023/01/03 01:34:44;;;;;;;95.55;69.00;;;6.30;99.90;;;;;;4995204;28;20045;-74
2023/01/03 01:37:09;;;;;;;121.57;89.80;;;6.30;99.90;;;;;;4998384;28;20023;-75
2023/01/03 01:39:35;;;;;;;120.00;87.30;;;6.30;99.90;;;;;;4999820;28;20117;-74
2023/01/03 01:44:58;;;;;;;119.75;81.25;;;6.30;99.90;;;;;;4999681;28;20113;-73
2023/01/03 01:47:30;;;;;;;118.93;81.45;;;6.30;99.90;;;;;;4981744;28;20034;-74
2023/01/03 01:50:25;;;;;;;108.60;77.80;;;6.20;99.90;;;;;;4999510;28;20025;-73
2023/01/03 01:53:05;;;;;;;100.95;71.53;;;6.20;99.90;;;;;;4996904;28;20042;-73
2023/01/03 01:55:43;;;;;;;92.55;68.72;;;6.20;99.90;;;;;;4999651;28;20421;-74
2023/01/03 01:58:09;;;;;;;108.15;79.85;;;6.20;99.90;;;;;;4999384;28;20026;-73
2023/01/03 02:00:37;;;;;;;107.18;79.88;;;6.20;99.90;;;;;;4999502;28;20062;-75
2023/01/03 02:03:03;;;;;;;98.85;73.80;;;6.10;99.90;;;;;;4999269;28;20038;-74
2023/01/03 02:05:31;;;;;;;96.60;68.25;;;6.20;99.90;;;;;;4999925;28;20031;-72
2023/01/03 02:07:58;;;;;;;82.20;63.88;;;6.10;99.90;;;;;;4985494;28;20434;-74
2023/01/03 02:10:44;;;;;;;81.47;61.15;;;6.10;99.90;;;;;;4983751;28;20031;-73
2023/01/03 02:13:33;;;;;;;99.10;68.43;;;6.00;99.90;;;;;;4972725;28;20101;-73
2023/01/03 02:16:17;;;;;;;88.97;66.60;;;6.00;99.90;;;;;;4997877;28;20034;-74
2023/01/03 02:18:52;;;;;;;107.60;79.30;;;6.00;99.90;;;;;;4991676;28;20030;-74
2023/01/03 02:21:39;;;;;;;88.28;69.78;;;6.00;99.90;;;;;;4973164;28;20054;-73
2023/01/03 02:24:20;;;;;;;98.53;70.00;;;6.00;99.90;;;;;;4987282;28;20034;-73
2023/01/03 02:26:58;;;;;;;102.45;71.72;;;6.00;99.90;;;;;;4996390;28;20049;-73
2023/01/03 02:29:41;;;;;;;122.40;83.85;;;5.90;99.90;;;;;;4983830;28;20033;-73
2023/01/03 02:32:26;;;;;;;116.63;76.22;;;5.80;99.90;;;;;;4996224;28;20454;-73
2023/01/03 02:35:01;;;;;;;110.63;74.88;;;5.80;99.90;;;;;;4995316;28;20086;-73
2023/01/03 02:37:54;;;;;;;97.20;67.13;;;5.80;99.90;;;;;;4983769;28;20064;-73
2023/01/03 02:40:58;;;;;;;84.75;63.38;;;5.80;99.90;;;;;;4991036;28;20101;-73
2023/01/03 02:43:32;;;;;;;86.65;63.33;;;5.80;99.90;;;;;;4983867;28;20046;-73
2023/01/03 02:46:06;;;;;;;86.15;62.97;;;5.80;99.90;;;;;;4984722;28;20051;-73
2023/01/03 02:48:51;;;;;;;85.63;61.13;;;5.80;99.90;;;;;;4982670;28;20489;-74
2023/01/03 02:51:36;;;;;;;94.28;66.60;;;5.90;99.90;;;;;;4979190;28;20030;-74
2023/01/03 02:54:06;;;;;;;86.57;64.90;;;5.80;99.90;;;;;;4983112;28;20025;-74
2023/01/03 02:56:37;;;;;;;95.35;70.22;;;5.80;99.90;;;;;;4993094;28;20033;-74
2023/01/03 02:59:09;;;;;;;103.57;74.75;;;5.90;99.90;;;;;;4995644;28;20030;-74
2023/01/03 03:01:36;;;;;;;95.15;70.97;;;5.90;99.90;;;;;;4995481;28;20030;-73
2023/01/03 03:04:05;;;;;;;116.55;72.97;;;5.90;99.90;;;;;;4991946;28;20050;-73
2023/01/03 03:06:52;;;;;;;98.95;74.63;;;5.90;99.90;;;;;;4994254;28;20038;-74
2023/01/03 03:09:18;;;;;;;111.22;77.95;;;5.90;99.90;;;;;;4988697;28;20430;-73
2023/01/03 03:14:40;;;;;;;105.85;73.85;;;6.00;99.90;;;;;;4989446;28;20031;-73
2023/01/03 03:17:14;;;;;;;96.25;72.35;;;6.00;99.90;;;;;;4983741;28;20026;-73
2023/01/03 03:25:28;;;;;;;96.90;66.55;;;6.20;99.90;;;;;;4973698;28;20066;-74
2023/01/03 03:30:51;;;;;;;97.47;72.00;;;6.10;99.90;;;;;;4986769;28;20022;-73
2023/01/03 03:33:19;;;;;;;105.80;71.10;;;6.10;99.90;;;;;;4984582;28;20108;-74
2023/01/03 03:35:54;;;;;;;94.88;65.88;;;6.00;99.90;;;;;;4994062;28;20030;-73
2023/01/03 03:38:24;;;;;;;96.60;67.28;;;6.10;99.90;;;;;;4988712;28;20110;-74
2023/01/03 03:47:11;;;;;;;89.85;63.80;;;6.10;99.90;;;;;;4991387;28;20490;-74
2023/01/03 03:49:40;;;;;;;97.53;69.65;;;6.10;99.90;;;;;;4994549;28;20458;-74
2023/01/03 03:52:17;;;;;;;88.63;64.45;;;6.10;99.90;;;;;;4989291;28;20551;-73
2023/01/03 03:54:57;;;;;;;101.88;73.15;;;6.10;99.90;;;;;;4974094;28;20106;-73
2023/01/03 03:57:38;;;;;;;92.55;66.28;;;6.00;99.90;;;;;;4980085;28;20031;-73
2023/01/03 04:00:10;;;;;;;76.03;57.63;;;6.00;99.90;;;;;;4976337;28;20027;-74
2023/01/03 04:02:41;;;;;;;108.35;75.97;;;6.00;99.90;;;;;;4975684;28;20047;-74
2023/01/03 04:05:09;;;;;;;117.68;89.05;;;6.00;99.90;;;;;;4989611;28;20023;-74
2023/01/03 04:07:36;;;;;;;176.48;128.38;;;6.00;99.90;;;;;;4988984;28;20057;-75
2023/01/03 04:10:02;;;;;;;202.95;151.18;;;5.90;99.90;;;;;;4994529;28;20026;-75
2023/01/03 04:12:28;;;;;;;119.35;84.10;;;5.90;99.90;;;;;;4994139;28;20019;-75
2023/01/03 04:14:54;;;;;;;94.60;66.80;;;5.80;99.90;;;;;;4994384;28;20363;-74
2023/01/03 04:17:20;;;;;;;83.50;61.45;;;5.70;99.90;;;;;;4983251;28;20033;-74
2023/01/03 04:19:45;;;;;;;91.40;64.93;;;5.70;99.90;;;;;;4994311;28;20108;-74
2023/01/03 04:22:11;;;;;;;92.75;67.85;;;5.60;99.90;;;;;;5005222;28;20493;-74
2023/01/03 04:24:37;;;;;;;91.13;66.30;;;5.60;99.90;;;;;;4994285;28;20456;-74
2023/01/03 04:27:03;;;;;;;106.75;77.25;;;5.60;99.90;;;;;;4993416;28;20030;-74
2023/01/03 04:29:28;;;;;;;121.50;90.70;;;5.60;99.90;;;;;;4987184;28;20386;-75
2023/01/03 04:31:54;;;;;;;100.38;74.88;;;5.60;99.90;;;;;;4994098;28;20023;-76
2023/01/03 04:34:21;;;;;;;98.70;68.03;;;5.70;99.90;;;;;;4994065;28;20113;-75
2023/01/03 04:36:47;;;;;;;101.80;73.97;;;5.60;99.90;;;;;;4993976;28;20098;-75
2023/01/03 04:39:13;;;;;;;117.50;83.90;;;5.60;99.90;;;;;;4994075;28;20266;-76
2023/01/03 04:41:39;;;;;;;128.68;99.07;;;5.60;99.90;;;;;;4993852;28;20026;-76
2023/01/03 04:44:04;;;;;;;130.35;95.15;;;5.60;99.90;;;;;;4993839;28;20046;-76
2023/01/03 04:46:32;;;;;;;116.82;82.85;;;5.70;99.90;;;;;;4993019;28;20113;-75
2023/01/03 04:48:58;;;;;;;119.00;88.53;;;5.70;99.90;;;;;;4993795;28;20025;-74
2023/01/03 04:51:24;;;;;;;112.97;82.22;;;5.70;99.90;;;;;;4993871;28;20073;-74
2023/01/03 04:53:50;;;;;;;103.13;79.88;;;5.80;99.90;;;;;;4993969;28;20446;-73
2023/01/03 04:56:16;;;;;;;94.57;68.57;;;5.80;99.90;;;;;;4993451;28;20541;-74
2023/01/03 04:58:42;;;;;;;115.13;85.88;;;5.70;99.90;;;;;;4993816;28;20157;-74
2023/01/03 05:01:08;;;;;;;109.70;81.18;;;5.70;99.90;;;;;;4993403;28;20101;-74
2023/01/03 05:03:36;;;;;;;107.15;76.93;;;5.60;99.90;;;;;;4993467;28;20049;-74
2023/01/03 05:06:05;;;;;;;112.20;82.30;;;5.60;99.90;;;;;;4993626;28;20076;-73
2023/01/03 05:08:32;;;;;;;111.63;82.15;;;5.60;99.90;;;;;;4993613;28;20030;-74
2023/01/03 05:10:58;;;;;;;102.88;77.97;;;5.60;99.90;;;;;;4993441;28;20022;-73
2023/01/03 05:13:23;;;;;;;110.78;81.25;;;5.60;99.90;;;;;;4993438;28;20117;-74
2023/01/03 05:15:49;;;;;;;116.88;84.80;;;5.40;99.90;;;;;;4993203;28;20061;-73
2023/01/03 05:18:15;;;;;;;123.72;88.22;;;5.40;99.90;;;;;;4976321;28;20068;-73
2023/01/03 05:26:14;;;;;;;107.60;74.20;;;5.50;99.90;;;;;;4992912;28;20054;-73
2023/01/03 05:28:42;;;;;;;99.50;75.68;;;5.60;99.90;;;;;;4993397;28;20043;-74
2023/01/03 05:31:08;;;;;;;104.05;77.47;;;5.60;99.90;;;;;;4992752;28;20057;-74
2023/01/03 05:33:36;;;;;;;115.93;85.10;;;5.60;99.90;;;;;;4993218;28;20038;-73
2023/01/03 05:36:01;;;;;;;150.50;106.03;;;5.70;99.90;;;;;;4992911;28;20037;-74
2023/01/03 05:38:27;;;;;;;141.45;98.60;;;5.70;99.90;;;;;;4993166;28;20030;-73
2023/01/03 05:40:53;;;;;;;162.38;115.85;;;5.70;99.90;;;;;;4975708;28;20094;-74
2023/01/03 05:43:19;;;;;;;136.68;98.60;;;5.70;99.90;;;;;;4992813;28;20039;-74
2023/01/03 05:45:51;;;;;;;115.53;87.50;;;5.70;99.90;;;;;;4975945;28;20485;-73
2023/01/03 05:48:18;;;;;;;115.40;83.57;;;5.70;99.90;;;;;;4990918;28;20034;-74
2023/01/03 05:50:45;;;;;;;107.72;78.32;;;5.60;99.90;;;;;;4992851;28;20038;-74
2023/01/03 05:53:11;;;;;;;107.85;76.78;;;5.60;99.90;;;;;;4992851;28;20038;-73
2023/01/03 05:55:37;;;;;;;97.47;70.18;;;5.60;99.90;;;;;;4992013;28;20068;-73
2023/01/03 05:58:04;;;;;;;96.85;69.85;;;5.60;99.90;;;;;;4996129;28;20105;-74
2023/01/03 06:00:30;;;;;;;104.97;78.00;;;5.60;99.90;;;;;;4996923;28;20470;-74
2023/01/03 06:02:56;;;;;;;111.63;83.72;;;5.50;99.90;;;;;;4996628;28;20085;-73
2023/01/03 06:05:22;;;;;;;99.00;68.68;;;5.60;99.90;;;;;;4996697;28;20069;-73
2023/01/03 06:07:48;;;;;;;90.13;63.97;;;5.60;99.90;;;;;;4996387;28;20026;-73
2023/01/03 06:10:14;;;;;;;95.63;69.90;;;5.60;99.90;;;;;;4986676;28;20428;-75
2023/01/03 06:12:40;;;;;;;89.95;63.78;;;5.60;99.90;;;;;;4996598;28;20564;-74
2023/01/03 06:15:06;;;;;;;93.95;63.40;;;5.60;99.90;;;;;;4996615;28;20022;-74
2023/01/03 06:20:17;;;;;;;77.47;53.60;;;5.50;99.90;;;;;;4996552;28;20054;-75
2023/01/03 06:22:42;;;;;;;78.00;54.65;;;5.50;99.90;;;;;;4996298;28;20074;-75
2023/01/03 06:25:08;;;;;;;78.65;55.95;;;5.50;99.90;;;;;;4996301;28;20022;-74
2023/01/03 06:27:34;;;;;;;76.95;54.97;;;5.60;99.90;;;;;;4995867;28;20378;-74
2023/01/03 06:30:00;;;;;;;97.90;68.18;;;5.50;99.90;;;;;;4996488;28;20057;-74
2023/01/03 06:32:26;;;;;;;89.70;53.72;;;5.40;99.90;;;;;;4995100;28;20054;-74
2023/01/03 06:34:52;;;;;;;122.65;79.90;;;5.40;99.90;;;;;;4994880;28;20367;-73
2023/01/03 06:37:18;;;;;;;137.60;82.10;;;5.50;99.90;;;;;;4995203;28;20101;-74
2023/01/03 06:39:44;;;;;;;116.90;77.57;;;5.60;99.90;;;;;;5006031;28;20030;-73
2023/01/03 06:53:14;;;;;;;75.82;53.20;;;5.80;99.90;;;;;;5015512;28;20085;-73
2023/01/03 06:55:42;;;;;;;70.57;48.40;;;5.90;99.90;;;;;;4994492;28;20029;-74
2023/01/03 06:58:08;;;;;;;71.72;51.22;;;6.00;99.90;;;;;;4995515;28;20374;-73
2023/01/03 07:00:36;;;;;;;72.78;46.17;;;6.00;99.90;;;;;;4996160;28;20030;-74
2023/01/03 07:03:02;;;;;;;71.50;51.20;;;6.00;99.90;;;;;;4995338;28;20105;-74
2023/01/03 07:05:28;;;;;;;72.60;51.55;;;6.10;99.90;;;;;;4995708;28;20027;-74
2023/01/03 07:07:54;;;;;;;92.95;64.65;;;6.20;99.90;;;;;;4994146;28;20496;-73
2023/01/03 07:10:19;;;;;;;90.63;59.13;;;6.20;99.90;;;;;;4995555;28;20027;-73
2023/01/03 07:15:29;;;;;;;123.00;83.15;;;6.40;99.90;;;;;;4995334;28;20030;-73
2023/01/03 07:17:55;;;;;;;94.93;67.72;;;6.50;99.90;;;;;;4994974;28;20026;-73
2023/01/03 07:20:22;;;;;;;101.93;74.03;;;6.60;99.90;;;;;;5003359;28;20473;-73
2023/01/03 07:22:47;;;;;;;85.00;60.72;;;6.60;99.90;;;;;;4993096;28;20490;-73
2023/01/03 07:25:13;;;;;;;118.93;83.95;;;6.70;99.90;;;;;;4984192;28;20034;-73
2023/01/03 07:27:40;;;;;;;113.22;78.07;;;6.70;99.90;;;;;;4978161;28;20026;-73
2023/01/03 07:30:06;;;;;;;99.13;69.57;;;6.80;99.90;;;;;;4984976;28;20101;-73
2023/01/03 07:32:32;;;;;;;114.57;76.35;;;6.90;99.90;;;;;;4984365;28;20120;-73
2023/01/03 07:34:58;;;;;;;106.50;72.85;;;7.00;99.90;;;;;;4963870;28;20146;-73
2023/01/03 07:37:24;;;;;;;113.60;80.00;;;7.10;99.90;;;;;;4995011;28;20030;-74
2023/01/03 07:39:49;;;;;;;113.80;78.47;;;7.20;99.90;;;;;;4987025;28;20099;-74
2023/01/03 07:45:00;;;;;;;121.97;87.35;;;7.50;99.90;;;;;;4987991;28;20037;-74
2023/01/03 07:47:26;;;;;;;91.93;63.72;;;7.60;99.90;;;;;;4990568;28;20018;-71
2023/01/03 07:49:52;;;;;;;82.75;59.95;;;7.90;99.90;;;;;;4984684;28;20382;-72
2023/01/03 07:52:17;;;;;;;90.05;63.50;;;8.60;99.90;;;;;;4994481;28;20037;-74
2023/01/03 07:54:43;;;;;;;85.68;58.03;;;8.70;99.90;;;;;;4994103;28;20537;-74
2023/01/03 07:57:09;;;;;;;98.45;71.55;;;8.70;99.90;;;;;;4986519;28;20034;-74
2023/01/03 07:59:35;;;;;;;94.80;69.55;;;8.60;99.90;;;;;;4992021;28;20030;-73
2023/01/03 08:02:01;;;;;;;86.05;57.58;;;8.70;99.90;;;;;;4994294;28;20034;-74
2023/01/03 08:04:27;;;;;;;82.90;56.60;;;8.70;99.90;;;;;;4992949;28;20043;-75
2023/01/03 08:06:52;;;;;;;79.05;53.80;;;8.80;99.90;;;;;;4974385;28;20031;-74
2023/01/03 08:14:47;;;;;;;67.10;48.08;;;8.90;99.90;;;;;;4994445;28;20026;-73
2023/01/03 08:17:13;;;;;;;68.60;48.20;;;9.00;99.90;;;;;;4989374;28;20031;-75
2023/01/03 08:19:39;;;;;;;71.05;48.72;;;9.10;99.90;;;;;;4987453;28;20117;-74
2023/01/03 08:22:05;;;;;;;67.65;48.78;;;9.20;99.90;;;;;;4990978;28;20042;-74
2023/01/03 08:24:31;;;;;;;66.97;48.00;;;9.30;99.90;;;;;;5007432;28;20060;-74
2023/01/03 08:26:56;;;;;;;66.82;48.17;;;9.40;99.90;;;;;;4994201;28;20517;-74
2023/01/03 08:29:22;;;;;;;71.32;45.13;;;9.50;99.90;;;;;;4993634;28;20382;-74
2023/01/03 08:31:54;;;;;;;66.03;43.80;;;9.70;99.90;;;;;;4994186;28;20057;-74
2023/01/03 08:34:21;;;;;;;60.17;45.58;;;9.70;99.90;;;;;;4994124;28;20046;-74
2023/01/03 08:36:53;;;;;;;67.22;45.33;;;9.90;99.90;;;;;;4999101;28;20022;-74
2023/01/03 08:39:25;;;;;;;58.53;42.55;;;10.00;99.90;;;;;;5002939;28;20033;-74
2023/01/03 08:42:01;;;;;;;61.13;45.47;;;10.20;99.90;;;;;;5003235;28;20991;-73
2023/01/03 08:44:26;;;;;;;72.90;49.38;;;10.30;99.90;;;;;;5002641;28;20037;-73
2023/01/03 08:46:55;;;;;;;65.40;47.67;;;10.40;99.90;;;;;;4999390;28;20167;-74
2023/01/03 08:49:22;;;;;;;57.40;40.92;;;10.60;99.90;;;;;;4983228;28;20043;-73
2023/01/03 08:52:29;;;;;;;51.80;37.95;;;10.70;99.90;;;;;;4992994;28;20015;-74
2023/01/03 08:54:55;;;;;;;36.72;22.30;;;10.90;99.90;;;;;;4993139;28;20069;-74
2023/01/03 08:57:21;;;;;;;31.92;17.60;;;11.20;99.90;;;;;;4996241;28;20031;-74
2023/01/03 08:59:47;;;;;;;28.70;17.58;;;11.50;99.90;;;;;;4974296;28;20023;-71
2023/01/03 09:02:13;;;;;;;26.42;16.02;;;11.70;99.90;;;;;;4973937;28;20023;-72
2023/01/03 09:04:38;;;;;;;24.92;15.15;;;11.80;99.90;;;;;;4974226;28;20027;-72
2023/01/03 09:07:05;;;;;;;28.70;16.67;;;12.00;99.90;;;;;;4976725;28;20092;-72
2023/01/03 09:09:31;;;;;;;26.45;16.20;;;12.10;99.90;;;;;;4993578;28;20062;-72
2023/01/03 09:11:56;;;;;;;24.90;15.18;;;12.30;99.90;;;;;;5003794;28;20104;-72
2023/01/03 09:14:22;;;;;;;25.60;15.68;;;12.40;99.90;;;;;;5002368;28;20604;-72
2023/01/03 09:16:48;;;;;;;26.10;15.70;;;12.50;99.90;;;;;;5007406;28;20030;-72
2023/01/03 09:19:14;;;;;;;25.92;16.85;;;12.60;99.90;;;;;;5006504;28;20029;-72
2023/01/03 09:21:40;;;;;;;27.73;17.98;;;12.70;99.90;;;;;;4993139;28;20498;-72
2023/01/03 09:24:06;;;;;;;30.65;17.40;;;12.80;99.90;;;;;;4993487;28;20038;-72
2023/01/03 09:26:32;;;;;;;29.10;17.77;;;12.80;99.90;;;;;;4993599;28;20023;-72
2023/01/03 09:28:58;;;;;;;28.25;17.45;;;12.90;99.90;;;;;;4993060;28;20612;-72
2023/01/03 09:31:23;;;;;;;24.67;14.93;;;13.00;99.90;;;;;;4994231;28;20106;-73
2023/01/03 09:33:49;;;;;;;23.95;15.60;;;13.10;99.90;;;;;;4997189;28;20104;-75
2023/01/03 09:36:15;;;;;;;20.80;11.98;;;13.10;99.90;;;;;;4997176;28;20032;-74
2023/01/03 09:38:41;;;;;;;23.80;12.60;;;13.20;99.90;;;;;;4997256;28;20050;-72
2023/01/03 09:41:16;;;;;;;20.02;11.43;;;13.30;99.90;;;;;;4997385;28;20027;-73
2023/01/03 09:43:45;;;;;;;18.17;10.43;;;13.40;99.90;;;;;;4997409;28;20046;-73
2023/01/03 09:46:25;;;;;;;24.13;11.27;;;13.50;99.90;;;;;;5005028;28;20389;-73
2023/01/03 09:48:52;;;;;;;14.25;8.57;;;13.50;99.90;;;;;;5006438;28;20497;-74
2023/01/03 10:03:44;;;;;;;21.58;9.25;;;13.80;99.90;;;;;;5009487;28;20050;-73
2023/01/03 10:06:12;;;;;;;15.07;8.15;;;13.90;99.90;;;;;;5016822;28;20026;-73
2023/01/03 10:08:43;;;;;;;18.45;10.18;;;13.90;99.90;;;;;;4998687;28;20526;-74
2023/01/03 10:11:19;;;;;;;16.27;8.63;;;13.90;99.90;;;;;;4995354;28;20034;-73
2023/01/03 10:14:05;;;;;;;17.52;8.60;;;13.90;99.90;;;;;;4996591;28;20029;-73
2023/01/03 10:17:08;;;;;;;17.83;10.10;;;13.90;99.90;;;;;;4995034;28;20046;-73
2023/01/03 10:19:52;;;;;;;16.15;9.07;;;13.90;99.90;;;;;;4991066;28;20050;-73
2023/01/03 10:22:29;;;;;;;15.43;8.65;;;14.00;99.90;;;;;;4995546;28;20086;-73
2023/01/03 10:25:11;;;;;;;16.50;8.68;;;14.00;99.90;;;;;;4995109;28;20406;-73
2023/01/03 10:27:45;;;;;;;16.08;8.70;;;14.20;99.90;;;;;;4995854;28;20022;-73
2023/01/03 10:30:18;;;;;;;18.52;9.27;;;14.00;99.90;;;;;;4994038;28;20479;-72
2023/01/03 10:33:04;;;;;;;15.55;8.77;;;14.10;99.90;;;;;;4996067;28;20702;-74
2023/01/03 10:35:33;;;;;;;15.02;8.00;;;14.10;99.90;;;;;;4996383;28;20022;-73
2023/01/03 10:37:59;;;;;;;12.38;7.05;;;14.20;99.90;;;;;;4994842;28;20429;-74
2023/01/03 10:40:47;;;;;;;14.05;7.93;;;14.10;99.90;;;;;;4995280;28;20030;-73
2023/01/03 10:43:19;;;;;;;19.63;9.65;;;14.00;99.90;;;;;;4994567;28;20108;-73
2023/01/03 10:46:02;;;;;;;17.63;8.73;;;14.10;99.90;;;;;;4995990;28;20031;-73
2023/01/03 10:48:55;;;;;;;16.65;9.38;;;14.10;99.90;;;;;;4995070;28;20038;-73
2023/01/03 10:51:37;;;;;;;;;;;14.10;99.90;;;;;;4991680;28;20182;-73
2023/01/03 10:54:25;;;;;;;18.25;9.63;;;14.10;99.90;;;;;;4995189;28;19909;-73
2023/01/03 10:56:51;;;;;;;19.95;10.20;;;14.00;99.90;;;;;;4989295;28;20158;-73
2023/01/03 10:59:32;;;;;;;16.48;9.88;;;14.10;99.90;;;;;;4995769;28;20105;-75
2023/01/03 11:02:04;;;;;;;20.65;10.73;;;14.00;99.90;;;;;;4984292;28;20462;-74
2023/01/03 11:04:31;;;;;;;21.75;11.82;;;14.10;99.90;;;;;;4995404;28;20042;-73
2023/01/03 11:06:58;;;;;;;20.90;11.25;;;14.20;99.90;;;;;;4995560;28;20014;-73
2023/01/03 11:09:31;;;;;;;17.88;10.32;;;14.10;99.90;;;;;;4994890;28;20121;-73
2023/01/03 11:12:09;;;;;;;;;;;14.20;99.90;;;;;;4995259;28;20463;-74
2023/01/03 11:14:34;;;;;;;16.80;9.27;;;14.20;99.90;;;;;;4994494;28;19910;-74
2023/01/03 11:17:03;;;;;;;17.25;9.95;;;14.20;99.90;;;;;;4993081;28;20029;-72
2023/01/03 11:19:31;;;;;;;16.02;10.15;;;14.30;99.90;;;;;;4995219;28;20022;-73
2023/01/03 11:22:09;;;;;;;21.05;10.07;;;14.30;99.90;;;;;;4993589;28;20046;-73
2023/01/03 11:25:06;;;;;;;17.23;9.80;;;14.30;99.90;;;;;;4992459;28;20049;-73
2023/01/03 11:27:54;;;;;;;17.67;10.02;;;14.30;99.90;;;;;;4896300;29;20436;-73
2023/01/03 11:30:24;;;;;;;18.23;10.48;;;14.40;99.90;;;;;;4880970;29;20442;-73
2023/01/03 11:33:17;;;;;;;17.52;9.57;;;14.50;99.90;;;;;;4883746;29;20124;-73
2023/01/03 11:35:43;;;;;;;;;;;14.50;99.90;;;;;;4877877;29;20028;-73
2023/01/03 11:38:44;;;;;;;16.95;9.73;;;14.70;99.90;;;;;;4882683;29;19985;-73
2023/01/03 11:41:12;;;;;;;15.90;8.30;;;14.70;99.90;;;;;;4885046;29;20043;-72
2023/01/03 11:44:14;;;;;;;16.85;8.68;;;14.70;99.90;;;;;;4894833;29;20442;-73
2023/01/03 11:46:58;;;;;;;13.55;6.35;;;14.70;99.90;;;;;;4897056;29;20492;-72
2023/01/03 11:49:27;;;;;;;10.00;5.57;;;14.70;99.90;;;;;;4897158;29;20184;-73
2023/01/03 11:52:11;;;;;;;10.00;5.72;;;14.70;99.90;;;;;;4896810;29;20033;-73
2023/01/03 11:55:07;;;;;;;8.25;4.32;;;14.50;99.90;;;;;;4896552;29;20040;-73
2023/01/03 11:57:33;;;;;;;9.93;4.65;;;14.60;99.90;;;;;;4897072;29;20088;-72
2023/01/03 12:00:34;;;;;;;8.85;5.22;;;14.60;99.90;;;;;;4897113;29;20028;-73
2023/01/03 12:03:03;;;;;;;10.25;4.63;;;14.60;99.90;;;;;;4859345;29;20520;-73
2023/01/03 12:05:45;;;;;;;11.13;5.40;;;14.60;99.90;;;;;;4944018;29;20114;-73
2023/01/03 12:08:16;;;;;;;8.20;4.83;;;14.50;99.90;;;;;;4953759;29;20046;-73
2023/01/03 12:10:55;;;;;;;7.82;4.63;;;14.50;99.90;;;;;;4953663;29;20780;-74
2023/01/03 12:13:27;;;;;;;9.77;5.38;;;14.60;99.90;;;;;;4953570;29;20443;-73
2023/01/03 12:16:11;;;;;;;10.00;5.20;;;14.60;99.90;;;;;;4953384;29;20031;-73
2023/01/03 12:18:40;;;;;;;12.60;5.82;;;14.60;99.90;;;;;;4953609;29;20039;-73
2023/01/03 12:21:15;;;;;;;9.55;5.20;;;14.50;99.90;;;;;;4953360;28;20035;-73
2023/01/03 12:24:12;;;;;;;13.15;5.35;;;14.50;99.90;;;;;;4953448;29;20149;-74
2023/01/03 12:26:41;;;;;;;12.23;5.82;;;14.60;99.90;;;;;;4915176;29;20130;-73
2023/01/03 12:29:18;;;;;;;7.90;4.78;;;14.60;99.90;;;;;;4915202;29;20036;-74
2023/01/03 12:31:56;;;;;;;10.32;4.68;;;14.60;99.90;;;;;;4915121;29;20040;-73
2023/01/03 12:34:27;;;;;;;10.85;4.88;;;14.60;99.90;;;;;;4915131;29;20500;-74
2023/01/03 12:37:16;;;;;;;8.73;5.03;;;14.60;99.90;;;;;;4914780;29;20044;-74
2023/01/03 12:39:56;;;;;;;11.00;4.93;;;14.50;99.90;;;;;;4928012;29;20560;-73
2023/01/03 12:42:28;;;;;;;11.38;5.20;;;14.50;99.90;;;;;;4969315;28;20035;-73
2023/01/03 12:45:02;;;;;;;12.27;5.40;;;14.50;99.90;;;;;;4953162;29;20043;-73
2023/01/03 12:47:54;;;;;;;10.90;5.53;;;14.50;99.90;;;;;;4953250;29;20027;-73
2023/01/03 12:50:35;;;;;;;11.75;4.93;;;14.40;99.90;;;;;;4914795;29;20044;-73
2023/01/03 12:53:24;;;;;;;9.50;5.40;;;14.50;99.90;;;;;;4914733;29;20123;-73
2023/01/03 12:55:59;;;;;;;13.27;6.22;;;14.40;99.90;;;;;;4914873;29;20420;-73
2023/01/03 12:58:33;;;;;;;12.02;6.07;;;14.40;99.90;;;;;;4914597;29;20032;-74
2023/01/03 13:01:06;;;;;;;13.68;5.82;;;14.40;99.90;;;;;;4914782;29;20122;-73
2023/01/03 16:05:19;;;;;;;22.92;13.93;;;10.60;99.90;;;;;;5120268;23;20086;-74
2023/01/03 16:07:45;;;;;;;27.55;14.57;;;10.50;99.90;;;;;;4912588;29;20107;-76
2023/01/03 16:10:13;;;;;;;25.90;15.85;;;10.50;99.90;;;;;;4897991;29;20036;-77
2023/01/03 16:12:41;;;;;;;26.13;15.15;;;10.50;99.90;;;;;;4915712;29;20024;-77
2023/01/03 16:15:11;;;;;;;28.73;18.25;;;10.50;99.90;;;;;;4912052;29;20083;-77
2023/01/03 16:17:38;;;;;;;31.90;18.67;;;10.40;99.90;;;;;;4915327;29;20035;-76
2023/01/03 16:20:04;;;;;;;35.30;24.27;;;10.30;99.90;;;;;;4914802;29;20039;-78
2023/01/03 16:22:30;;;;;;;35.40;23.25;;;10.30;99.90;;;;;;4914902;29;20032;-77
2023/01/03 16:24:56;;;;;;;30.77;19.95;;;10.20;99.90;;;;;;4915889;29;20043;-76
2023/01/03 16:27:24;;;;;;;36.88;24.58;;;10.20;99.90;;;;;;4914632;29;20111;-76
2023/01/03 16:29:50;;;;;;;43.95;26.20;;;10.10;99.90;;;;;;4915664;29;20120;-77
2023/01/03 16:32:23;;;;;;;35.85;22.77;;;10.10;99.90;;;;;;4916205;29;20028;-78
2023/01/03 16:34:50;;;;;;;32.42;21.92;;;10.00;99.90;;;;;;4915812;29;20109;-76
2023/01/03 16:37:16;;;;;;;31.08;22.48;;;9.90;99.90;;;;;;4914811;29;20037;-76
2023/01/03 16:39:42;;;;;;;38.20;24.10;;;9.90;99.90;;;;;;4915656;29;20484;-78
2023/01/03 16:42:14;;;;;;;51.10;32.10;;;9.90;99.90;;;;;;4916070;29;20048;-77
2023/01/03 16:44:45;;;;;;;45.70;34.03;;;9.90;99.90;;;;;;4914601;29;20503;-77
2023/01/03 16:47:23;;;;;;;47.75;31.42;;;9.90;99.90;;;;;;4898845;29;20668;-78
2023/01/03 16:49:56;;;;;;;44.25;29.55;;;9.90;99.90;;;;;;4915695;29;20543;-77
2023/01/03 16:52:26;;;;;;;45.13;29.75;;;9.90;99.90;;;;;;4915974;29;20036;-77
2023/01/03 16:54:53;;;;;;;42.20;29.60;;;9.90;99.90;;;;;;4917292;29;20024;-74
2023/01/03 16:57:20;;;;;;;53.22;36.25;;;9.90;99.90;;;;;;4914270;29;20080;-74
2023/01/03 16:59:47;;;;;;;50.97;35.45;;;9.90;99.90;;;;;;4914500;29;20138;-75